^^
Meteo Knjazevac Station Historical Data
Daily Summary for September 26, 2022 Units:  English    Metric   Both
Daily Weekly Monthly Yearly Custom
  High: Low: Average:
Temperature: 51.1 °F 28.2 °F 37.4 °F
Dew Point: 43.1 °F 28 °F 35.5 °F
Humidity: 99% 73.3% 93%
Wind Speed: 9.4mph 0mph 3.5mph
Wind Gust: 12mph - -
Wind- - West
Pressure: 30.30 in 30.16 in -
Precipitation: 0.00 in    
Historical Graphs
 
 
Tabular Data for September 26, 2022
Time Temperature Dew Point Pressure Wind Wind Speed Wind Gust Humidity Rainfall Rate (Hourly) solar Conditions
00:04 33.4 °F 33.2 °F 30.17 in NNE 2.3 mph 3 mph 99% 0.00 in 0 W/m2
00:09 33.4 °F 33.2 °F 30.17 in NE 4.7 mph 3.4 mph 99% 0.00 in 0 W/m2
00:14 33.9 °F 33.6 °F 30.17 in ESE 4.3 mph 6 mph 99% 0.00 in 0 W/m2
00:19 34.4 °F 34.1 °F 30.17 in ESE 3.2 mph 5 mph 99% 0.00 in 0 W/m2
00:24 34.5 °F 34.3 °F 30.17 in East 1.2 mph 5 mph 99% 0.00 in 0 W/m2
00:29 34.5 °F 34.3 °F 30.17 in NNE 2.8 mph 2 mph 99% 0.00 in 0 W/m2
00:34 34.4 °F 34.2 °F 30.16 in ENE 2.6 mph 4 mph 99% 0.00 in 0 W/m2
00:39 34.3 °F 34 °F 30.16 in South 2 mph 3 mph 99% 0.00 in 0 W/m2
00:44 34.1 °F 33.8 °F 30.17 in West 2.6 mph 2.2 mph 99% 0.00 in 0 W/m2
00:49 34.1 °F 33.8 °F 30.17 in SSW 3.9 mph 4 mph 99% 0.00 in 0 W/m2
00:54 34.3 °F 34.1 °F 30.16 in SSE 4.1 mph 5 mph 99% 0.00 in 0 W/m2
00:59 34.5 °F 34.3 °F 30.17 in ESE 2.8 mph 6 mph 99% 0.00 in 0 W/m2
01:04 34.5 °F 34.3 °F 30.17 in ENE 2.9 mph 3 mph 99% 0.00 in 0 W/m2
01:09 34.4 °F 34.2 °F 30.17 in ENE 1.5 mph 5 mph 99% 0.00 in 0 W/m2
01:14 34.3 °F 34 °F 30.17 in SE 0.5 mph 5 mph 99% 0.00 in 0 W/m2
01:19 33.8 °F 33.6 °F 30.17 in SSW 1.6 mph 2 mph 99% 0.00 in 0 W/m2
01:24 33.5 °F 33.2 °F 30.17 in WNW 2.2 mph 2 mph 99% 0.00 in 0 W/m2
01:29 33.1 °F 32.9 °F 30.17 in NNW 1 mph 2 mph 99% 0.00 in 0 W/m2
01:34 32.6 °F 32.3 °F 30.17 in North 0.7 mph 2 mph 99% 0.00 in 0 W/m2
01:39 32.3 °F 32 °F 30.17 in NNW 1.4 mph 1.3 mph 99% 0.00 in 0 W/m2
01:44 31.9 °F 31.7 °F 30.17 in WNW 2.3 mph 2 mph 99% 0.00 in 0 W/m2
01:49 31.6 °F 31.4 °F 30.17 in West 2.9 mph 3 mph 99% 0.00 in 0 W/m2
01:54 31.4 °F 31.1 °F 30.18 in West 3.6 mph 4 mph 99% 0.00 in 0 W/m2
01:59 31.2 °F 30.9 °F 30.18 in West 2.5 mph 5 mph 99% 0.00 in 0 W/m2
02:04 31.1 °F 30.9 °F 30.18 in WNW 2.2 mph 2 mph 99% 0.00 in 0 W/m2
02:09 30.9 °F 30.7 °F 30.18 in NW 2.3 mph 3 mph 99% 0.00 in 0 W/m2
02:14 30.9 °F 30.7 °F 30.18 in NW 1.6 mph 3 mph 99% 0.00 in 0 W/m2
02:19 30.8 °F 30.6 °F 30.18 in NW 1.6 mph 2 mph 99% 0.00 in 0 W/m2
02:24 30.7 °F 30.4 °F 30.18 in NW 1.7 mph 2 mph 99% 0.00 in 0 W/m2
02:29 30.6 °F 30.3 °F 30.18 in NW 1.7 mph 2 mph 99% 0.00 in 0 W/m2
02:34 30.4 °F 30.1 °F 30.18 in NW 1.8 mph 2 mph 99% 0.00 in 0 W/m2
02:39 30.2 °F 30 °F 30.18 in NNW 1.4 mph 2 mph 99% 0.00 in 0 W/m2
02:44 30.2 °F 30 °F 30.18 in NNW 2.8 mph 2.2 mph 99% 0.00 in 0 W/m2
02:49 30 °F 29.8 °F 30.18 in NW 2.2 mph 3 mph 99% 0.00 in 0 W/m2
02:54 29.9 °F 29.7 °F 30.18 in NW 2.7 mph 3 mph 99% 0.00 in 0 W/m2
02:59 29.8 °F 29.6 °F 30.18 in NW 2.3 mph 3 mph 99% 0.00 in 0 W/m2
03:04 29.8 °F 29.6 °F 30.18 in NW 2.5 mph 4 mph 99% 0.00 in 0 W/m2
03:09 29.9 °F 29.7 °F 30.18 in NW 1 mph 3 mph 99% 0.00 in 0 W/m2
03:14 29.8 °F 29.5 °F 30.18 in WNW 0.6 mph 1 mph 99% 0.00 in 0 W/m2
03:19 29.6 °F 29.3 °F 30.18 in WNW 2 mph 2 mph 99% 0.00 in 0 W/m2
03:24 29.3 °F 29.1 °F 30.18 in West 1.8 mph 2 mph 99% 0.00 in 0 W/m2
03:29 29.1 °F 28.9 °F 30.18 in WNW 2.6 mph 2.5 mph 99% 0.00 in 0 W/m2
03:34 29 °F 28.8 °F 30.18 in WNW 2.9 mph 3 mph 99% 0.00 in 0 W/m2
03:39 28.9 °F 28.7 °F 30.18 in WNW 1.9 mph 3 mph 99% 0.00 in 0 W/m2
03:44 28.9 °F 28.7 °F 30.18 in WNW 1.8 mph 2 mph 99% 0.00 in 0 W/m2
03:49 28.8 °F 28.6 °F 30.18 in WNW 1.9 mph 2 mph 99% 0.00 in 0 W/m2
03:54 28.8 °F 28.5 °F 30.19 in NW 1.2 mph 2 mph 99% 0.00 in 0 W/m2
03:59 28.8 °F 28.6 °F 30.18 in NNW 2.1 mph 2 mph 99% 0.00 in 0 W/m2
04:04 28.9 °F 28.7 °F 30.18 in NNW 1.3 mph 2 mph 99% 0.00 in 0 W/m2
04:09 28.9 °F 28.7 °F 30.18 in NW 2.1 mph 2.2 mph 99% 0.00 in 0 W/m2
04:14 28.9 °F 28.7 °F 30.19 in NNW 2 mph 3 mph 99% 0.00 in 0 W/m2
04:19 28.9 °F 28.7 °F 30.19 in NNW 1.8 mph 2 mph 99% 0.00 in 0 W/m2
04:24 29.1 °F 28.9 °F 30.19 in NNW 2.3 mph 2 mph 99% 0.00 in 0 W/m2
04:29 29.3 °F 29.1 °F 30.19 in NNW 1 mph 3 mph 99% 0.00 in 0 W/m2
04:34 29.2 °F 29 °F 30.19 in NNW 1.2 mph 1 mph 99% 0.00 in 0 W/m2
04:39 29 °F 28.8 °F 30.19 in WNW 2 mph 2 mph 99% 0.00 in 0 W/m2
04:44 28.9 °F 28.7 °F 30.19 in NW 0.9 mph 3 mph 99% 0.00 in 0 W/m2
04:49 28.9 °F 28.7 °F 30.19 in North 1.3 mph 1 mph 99% 0.00 in 0 W/m2
04:54 28.9 °F 28.7 °F 30.20 in NNW 1.9 mph 2 mph 99% 0.00 in 0 W/m2
04:59 28.9 °F 28.7 °F 30.20 in NW 2 mph 2 mph 99% 0.00 in 0 W/m2
05:04 29 °F 28.8 °F 30.20 in NNW 2.1 mph 3 mph 99% 0.00 in 0 W/m2
05:09 28.9 °F 28.7 °F 30.20 in NNW 1.8 mph 2 mph 99% 0.00 in 0 W/m2
05:14 28.9 °F 28.7 °F 30.20 in North 2.1 mph 2 mph 99% 0.00 in 0 W/m2
05:19 28.7 °F 28.5 °F 30.21 in NNW 1.4 mph 2 mph 99% 0.00 in 0 W/m2
05:24 28.6 °F 28.3 °F 30.21 in NNW 1.8 mph 2 mph 99% 0.00 in 0 W/m2
05:29 28.4 °F 28.2 °F 30.21 in NNW 2.1 mph 2 mph 99% 0.00 in 0 W/m2
05:34 28.4 °F 28.2 °F 30.21 in NNW 2.1 mph 3 mph 99% 0.00 in 0 W/m2
05:39 28.4 °F 28.2 °F 30.21 in West 1.5 mph 4 mph 99% 0.00 in 0 W/m2
05:44 28.3 °F 28.1 °F 30.22 in WNW 2.4 mph 2 mph 99% 0.00 in 0 W/m2
05:49 28.2 °F 28 °F 30.22 in NW 2.4 mph 3 mph 99% 0.00 in 0 W/m2
05:54 28.3 °F 28.1 °F 30.22 in NNW 2.9 mph 3 mph 99% 0.00 in 0 W/m2
05:59 28.5 °F 28.2 °F 30.21 in NNW 2.2 mph 5 mph 99% 0.00 in 0 W/m2
06:04 29 °F 28.8 °F 30.21 in NNE 3.2 mph 3 mph 99% 0.00 in 0 W/m2
06:09 29.8 °F 29.5 °F 30.22 in East 2.3 mph 3 mph 99% 0.00 in 0 W/m2
06:14 29.8 °F 29.6 °F 30.21 in SW 1.9 mph 3 mph 99% 0.00 in 0 W/m2
06:19 29.4 °F 29.2 °F 30.21 in West 2.5 mph 2 mph 99% 0.00 in 0 W/m2
06:24 29.2 °F 29 °F 30.21 in WNW 3 mph 3 mph 99% 0.00 in 0 W/m2
06:29 29 °F 28.8 °F 30.21 in WNW 4.5 mph 4 mph 99% 0.00 in 1 W/m2
06:34 28.9 °F 28.7 °F 30.22 in WNW 1.5 mph 7 mph 99% 0.00 in 2 W/m2
06:39 28.7 °F 28.4 °F 30.22 in NW 1.9 mph 2 mph 99% 0.00 in 4 W/m2
06:44 28.5 °F 28.3 °F 30.22 in WNW 3.3 mph 2.9 mph 99% 0.00 in 7 W/m2
06:49 28.4 °F 28.2 °F 30.22 in NW 2.6 mph 5 mph 99% 0.00 in 12 W/m2
06:54 28.4 °F 28.2 °F 30.22 in NW 2.6 mph 3 mph 99% 0.00 in 17 W/m2
06:59 28.3 °F 28.1 °F 30.22 in NNW 2.4 mph 3 mph 99% 0.00 in 21 W/m2
07:04 28.4 °F 28.2 °F 30.22 in NNW 2.2 mph 3 mph 99% 0.00 in 30 W/m2
07:09 28.4 °F 28.2 °F 30.22 in NW 1.4 mph 2 mph 99% 0.00 in 35 W/m2
07:14 28.4 °F 28.2 °F 30.22 in NW 2.3 mph 2 mph 99% 0.00 in 51 W/m2
07:19 28.4 °F 28.2 °F 30.22 in NW 2.2 mph 3 mph 99% 0.00 in 54 W/m2
07:24 28.4 °F 28.2 °F 30.23 in WNW 2.1 mph 2 mph 99% 0.00 in 53 W/m2
07:29 28.5 °F 28.2 °F 30.23 in WNW 3 mph 2.5 mph 99% 0.00 in 66 W/m2
07:34 28.7 °F 28.4 °F 30.23 in WNW 3 mph 4 mph 99% 0.00 in 80 W/m2
07:39 29.1 °F 28.9 °F 30.23 in WNW 2.3 mph 4 mph 99% 0.00 in 101 W/m2
07:44 29.6 °F 29.4 °F 30.23 in WNW 1.9 mph 3 mph 99% 0.00 in 111 W/m2
07:49 30.2 °F 30 °F 30.23 in NW 2 mph 3 mph 99% 0.00 in 125 W/m2
07:54 30.8 °F 30.6 °F 30.23 in NW 2 mph 2 mph 99% 0.00 in 130 W/m2
07:59 31.4 °F 31.2 °F 30.23 in NW 2.1 mph 2.2 mph 99% 0.00 in 158 W/m2
08:04 32.1 °F 31.8 °F 30.23 in NNW 0.2 mph 2 mph 99% 0.00 in 187 W/m2
08:09 32.8 °F 32.6 °F 30.23 in NW 2.5 mph 2 mph 99% 0.00 in 201 W/m2
08:14 33.3 °F 33.1 °F 30.23 in NW 2.4 mph 3 mph 99% 0.00 in 209 W/m2
08:19 34 °F 33.7 °F 30.23 in NW 2.6 mph 3 mph 99% 0.00 in 207 W/m2
08:24 34.6 °F 34.3 °F 30.23 in West 2.6 mph 2.2 mph 99% 0.00 in 203 W/m2
08:29 35 °F 34.8 °F 30.23 in West 2.3 mph 3 mph 99% 0.00 in 220 W/m2
08:34 35.6 °F 35.3 °F 30.23 in West 2.3 mph 3 mph 99% 0.00 in 223 W/m2
08:39 36.6 °F 36.4 °F 30.23 in WSW 2.7 mph 3 mph 99% 0.00 in 263 W/m2
08:44 37.7 °F 37.4 °F 30.23 in WSW 2.5 mph 3 mph 99% 0.00 in 279 W/m2
08:49 38.3 °F 38 °F 30.24 in West 2.3 mph 3 mph 99% 0.00 in 286 W/m2
08:54 39.1 °F 38.7 °F 30.24 in WSW 2.1 mph 3 mph 98.5% 0.00 in 311 W/m2
08:59 39.7 °F 39.2 °F 30.24 in WSW 2.2 mph 2 mph 98% 0.00 in 315 W/m2
09:04 40 °F 39.2 °F 30.24 in WSW 1.7 mph 2 mph 96.7% 0.00 in 325 W/m2
09:09 40.5 °F 39.4 °F 30.24 in WSW 1.5 mph 2 mph 96% 0.00 in 270 W/m2
09:14 40.9 °F 39.9 °F 30.24 in West 2.1 mph 2 mph 96% 0.00 in 316 W/m2
09:19 41.6 °F 40.3 °F 30.24 in WSW 2.8 mph 2.2 mph 95.1% 0.00 in 353 W/m2
09:24 42.2 °F 40.7 °F 30.24 in WSW 2.3 mph 3 mph 94.3% 0.00 in 337 W/m2
09:29 42.8 °F 41.3 °F 30.24 in WSW 2.7 mph 3 mph 94.2% 0.00 in 324 W/m2
09:34 43.8 °F 42 °F 30.24 in WSW 3.3 mph 3 mph 93.3% 0.00 in 333 W/m2
09:39 44.3 °F 42.2 °F 30.24 in WSW 3.5 mph 4 mph 92.3% 0.00 in 347 W/m2
09:44 44.6 °F 42 °F 30.24 in WSW 4.1 mph 4 mph 90.6% 0.00 in 333 W/m2
09:49 44.6 °F 41.8 °F 30.24 in SW 3.7 mph 5 mph 90% 0.00 in 333 W/m2
09:54 44.8 °F 41.9 °F 30.24 in SW 3.7 mph 4 mph 89.8% 0.00 in 408 W/m2
09:59 44.8 °F 41.7 °F 30.24 in SW 5.8 mph 5 mph 89.1% 0.00 in 415 W/m2
10:04 45.2 °F 42.4 °F 30.24 in WSW 6 mph 7 mph 89.7% 0.00 in 436 W/m2
10:09 45.8 °F 42.4 °F 30.24 in WSW 5.4 mph 7 mph 88.3% 0.00 in 433 W/m2
10:14 46 °F 42.4 °F 30.24 in SW 5.9 mph 6 mph 87.1% 0.00 in 433 W/m2
10:19 46.1 °F 42 °F 30.24 in SW 7.4 mph 7 mph 85.3% 0.00 in 441 W/m2
10:24 46 °F 41.8 °F 30.24 in WSW 6.4 mph 8 mph 85.3% 0.00 in 451 W/m2
10:29 46.3 °F 42 °F 30.24 in SW 7.4 mph 8 mph 85% 0.00 in 442 W/m2
10:34 46.4 °F 41.8 °F 30.24 in SW 7.1 mph 9 mph 84% 0.00 in 455 W/m2
10:39 46.7 °F 42.1 °F 30.24 in WSW 6.8 mph 8 mph 84% 0.00 in 450 W/m2
10:44 47.1 °F 42.2 °F 30.24 in WSW 8 mph 8 mph 83.3% 0.00 in 438 W/m2
10:49 47 °F 41.9 °F 30.23 in WSW 7.6 mph 9 mph 82.2% 0.00 in 418 W/m2
10:54 47.1 °F 41.9 °F 30.23 in WSW 7.2 mph 9 mph 81.9% 0.00 in 436 W/m2
10:59 47.6 °F 42.2 °F 30.23 in SW 7.7 mph 8 mph 81.7% 0.00 in 461 W/m2
11:04 47.8 °F 42.2 °F 30.23 in SW 7.4 mph 8 mph 80.7% 0.00 in 497 W/m2
11:09 48.2 °F 42.3 °F 30.23 in WSW 8.9 mph 8 mph 80.2% 0.00 in 512 W/m2
11:14 48.7 °F 42.9 °F 30.23 in WSW 7.3 mph 11 mph 80.3% 0.00 in 515 W/m2
11:19 48.9 °F 42.6 °F 30.23 in SW 7.1 mph 8 mph 78.5% 0.00 in 525 W/m2
11:24 49.3 °F 42.7 °F 30.23 in SW 7.5 mph 8 mph 78.1% 0.00 in 528 W/m2
11:29 49.6 °F 42.8 °F 30.23 in SW 6.6 mph 9 mph 77.4% 0.00 in 534 W/m2
11:34 50 °F 43.1 °F 30.23 in SW 6.4 mph 7 mph 77% 0.00 in 534 W/m2
11:39 50.3 °F 42.8 °F 30.23 in SW 6.4 mph 7 mph 75.6% 0.00 in 520 W/m2
11:44 50.6 °F 43 °F 30.22 in SW 6.4 mph 7 mph 75% 0.00 in 504 W/m2
11:49 51.1 °F 43.1 °F 30.22 in SW 5.3 mph 7 mph 74.1% 0.00 in 443 W/m2
11:54 51.1 °F 42.9 °F 30.22 in SW 5.7 mph 6 mph 73.4% 0.00 in 440 W/m2
11:59 51 °F 42.7 °F 30.22 in SW 5.4 mph 7 mph 73.3% 0.00 in 406 W/m2
12:04 50.7 °F 42.6 °F 30.22 in SW 5.5 mph 7 mph 73.7% 0.00 in 361 W/m2
12:09 50.7 °F 42.6 °F 30.22 in WSW 3.9 mph 6 mph 73.6% 0.00 in 345 W/m2
12:14 50.7 °F 42.5 °F 30.22 in WSW 5.3 mph 5.4 mph 73.3% 0.00 in 342 W/m2
12:19 50.5 °F 42.6 °F 30.22 in SW 7.5 mph 7 mph 74% 0.00 in 333 W/m2
12:24 50.5 °F 42.5 °F 30.22 in SW 7.8 mph 9 mph 74% 0.00 in 321 W/m2
12:29 50.4 °F 42.4 °F 30.22 in SW 7.3 mph 9 mph 74% 0.00 in 316 W/m2
12:34 50.4 °F 42.6 °F 30.22 in SW 6.6 mph 8 mph 74.8% 0.00 in 324 W/m2
12:39 50.4 °F 42.5 °F 30.22 in SW 6 mph 7 mph 74.1% 0.00 in 322 W/m2
12:44 50.4 °F 42.4 °F 30.22 in SW 5.9 mph 6 mph 74% 0.00 in 328 W/m2
12:49 50.5 °F 42.6 °F 30.22 in SW 7.8 mph 8 mph 74% 0.00 in 252 W/m2
12:54 50.4 °F 42.5 °F 30.22 in WSW 6.5 mph 8 mph 74% 0.00 in 220 W/m2
12:59 50.2 °F 42.4 °F 30.22 in WSW 6.2 mph 7 mph 74.4% 0.00 in 290 W/m2
13:04 49.9 °F 42.3 °F 30.22 in WSW 7.7 mph 8 mph 75% 0.00 in 211 W/m2
13:09 49.5 °F 42.2 °F 30.22 in SW 7.4 mph 8 mph 76.2% 0.00 in 239 W/m2
13:14 49.3 °F 42.3 °F 30.22 in SW 6.9 mph 8 mph 76.6% 0.00 in 241 W/m2
13:19 49.5 °F 42.5 °F 30.22 in SW 6.5 mph 8 mph 77% 0.00 in 232 W/m2
13:24 49.7 °F 42.8 °F 30.22 in WSW 6 mph 7 mph 77% 0.00 in 226 W/m2
13:29 50 °F 43.1 °F 30.22 in WSW 7.7 mph 7 mph 77% 0.00 in 198 W/m2
13:34 49.8 °F 42.3 °F 30.22 in WSW 7.7 mph 9 mph 75.2% 0.00 in 177 W/m2
13:39 49.4 °F 42.3 °F 30.22 in WSW 7.8 mph 8 mph 76.5% 0.00 in 164 W/m2
13:44 49.1 °F 42.2 °F 30.22 in WSW 7.2 mph 9 mph 77.1% 0.00 in 153 W/m2
13:49 48.8 °F 41.9 °F 30.22 in West 9.4 mph 8 mph 77.1% 0.00 in 140 W/m2
13:54 48.4 °F 41.7 °F 30.22 in West 7.9 mph 12 mph 77.5% 0.00 in 139 W/m2
13:59 48 °F 41.7 °F 30.22 in West 8.5 mph 8 mph 78.7% 0.00 in 144 W/m2
14:04 47.8 °F 42 °F 30.22 in WSW 8.7 mph 9 mph 79.9% 0.00 in 143 W/m2
14:09 47.7 °F 41.9 °F 30.22 in WSW 8.9 mph 10 mph 80.2% 0.00 in 141 W/m2
14:14 47.5 °F 41.9 °F 30.23 in SW 7.4 mph 10 mph 81% 0.00 in 139 W/m2
14:19 47.5 °F 41.9 °F 30.22 in SW 6.6 mph 8 mph 81% 0.00 in 136 W/m2
14:24 47.5 °F 41.9 °F 30.22 in WSW 7.8 mph 7 mph 81% 0.00 in 128 W/m2
14:29 47.3 °F 41.5 °F 30.22 in WSW 8.1 mph 9 mph 80.2% 0.00 in 119 W/m2
14:34 47.3 °F 41.4 °F 30.22 in WSW 7.8 mph 8 mph 80% 0.00 in 113 W/m2
14:39 47.2 °F 41.4 °F 30.22 in WSW 8.7 mph 9 mph 80.2% 0.00 in 106 W/m2
14:44 47 °F 41.5 °F 30.22 in WSW 8 mph 9 mph 81% 0.00 in 96 W/m2
14:49 46.8 °F 41.2 °F 30.22 in WSW 8.4 mph 8 mph 81% 0.00 in 96 W/m2
14:54 46.6 °F 41.4 °F 30.22 in WSW 7 mph 9 mph 82.1% 0.00 in 82 W/m2
14:59 46.3 °F 41.4 °F 30.22 in WSW 7.7 mph 9 mph 83% 0.00 in 75 W/m2
15:04 46 °F 41.4 °F 30.22 in WSW 6.7 mph 8 mph 83.5% 0.00 in 66 W/m2
15:09 45.9 °F 41.3 °F 30.23 in WSW 6.4 mph 7 mph 84% 0.00 in 57 W/m2
15:14 45.8 °F 41.2 °F 30.23 in WSW 5.7 mph 7 mph 84% 0.00 in 50 W/m2
15:19 45.6 °F 41.3 °F 30.23 in WSW 4.8 mph 7 mph 84.9% 0.00 in 43 W/m2
15:24 45.3 °F 41.1 °F 30.23 in WSW 5.2 mph 6 mph 85.1% 0.00 in 35 W/m2
15:29 45 °F 41 °F 30.23 in SW 5.5 mph 6 mph 86% 0.00 in 30 W/m2
15:34 44.6 °F 41 °F 30.23 in SW 5.3 mph 7 mph 87% 0.00 in 25 W/m2
15:39 44.3 °F 41 °F 30.23 in SW 4.6 mph 6 mph 88% 0.00 in 21 W/m2
15:44 44 °F 40.7 °F 30.23 in SW 5.9 mph 5 mph 88.2% 0.00 in 15 W/m2
15:49 43.7 °F 40.7 °F 30.23 in SW 6.5 mph 7 mph 89% 0.00 in 11 W/m2
15:54 43.3 °F 40.3 °F 30.24 in SW 7.8 mph 8 mph 89% 0.00 in 7 W/m2
15:59 43.1 °F 40.2 °F 30.24 in SW 7.2 mph 9 mph 89.7% 0.00 in 4 W/m2
16:04 42.9 °F 40.1 °F 30.24 in SW 7.6 mph 8 mph 90% 0.00 in 2 W/m2
16:09 42.5 °F 39.8 °F 30.24 in WSW 7 mph 8 mph 90% 0.00 in 1 W/m2
16:14 42.3 °F 39.7 °F 30.24 in WSW 7.5 mph 7 mph 90.4% 0.00 in 0 W/m2
16:19 42.1 °F 39.6 °F 30.24 in WSW 6.6 mph 8 mph 91% 0.00 in 0 W/m2
16:24 41.9 °F 39.5 °F 30.24 in WSW 6.5 mph 7 mph 91% 0.00 in 0 W/m2
16:29 41.8 °F 39.4 °F 30.25 in SW 6.9 mph 7 mph 91.4% 0.00 in 0 W/m2
16:34 41.5 °F 39.7 °F 30.25 in WSW 5.8 mph 8 mph 93% 0.00 in 0 W/m2
16:39 41.4 °F 39.6 °F 30.25 in WSW 5.5 mph 6 mph 93% 0.00 in 0 W/m2
16:44 41.3 °F 39.4 °F 30.25 in WSW 6.3 mph 6 mph 93% 0.00 in 0 W/m2
16:49 41.1 °F 39.2 °F 30.25 in WSW 5.5 mph 7 mph 93% 0.00 in 0 W/m2
16:54 40.9 °F 39.1 °F 30.25 in West 5.5 mph 6 mph 93.5% 0.00 in 0 W/m2
16:59 40.7 °F 39.1 °F 30.25 in West 4.6 mph 7 mph 94% 0.00 in 0 W/m2
17:04 40.5 °F 38.9 °F 30.25 in WSW 2.7 mph 5 mph 94% 0.00 in 0 W/m2
17:09 40.4 °F 38.8 °F 30.25 in WSW 2.2 mph 3 mph 94% 0.00 in 0 W/m2
17:14 40.2 °F 38.6 °F 30.25 in WSW 2.2 mph 2 mph 94% 0.00 in 0 W/m2
17:19 40 °F 38.4 °F 30.25 in SW 2 mph 2 mph 94% 0.00 in 0 W/m2
17:24 39.8 °F 38.5 °F 30.25 in SW 2.6 mph 2 mph 94.9% 0.00 in 0 W/m2
17:29 39.6 °F 38.3 °F 30.25 in SW 2.8 mph 3 mph 95% 0.00 in 0 W/m2
17:34 39.3 °F 38 °F 30.25 in SW 2.8 mph 3 mph 95% 0.00 in 0 W/m2
17:39 39.1 °F 37.8 °F 30.25 in SW 2.7 mph 3 mph 95% 0.00 in 0 W/m2
17:44 39 °F 37.7 °F 30.26 in WSW 2.3 mph 3 mph 95% 0.00 in 0 W/m2
17:49 38.8 °F 37.5 °F 30.26 in WSW 2.9 mph 3 mph 95.2% 0.00 in 0 W/m2
17:54 38.7 °F 37.6 °F 30.26 in SW 1.9 mph 3 mph 96% 0.00 in 0 W/m2
17:59 38.5 °F 37.4 °F 30.26 in SSW 2.3 mph 2 mph 96% 0.00 in 0 W/m2
18:04 38.5 °F 37.4 °F 30.26 in SSW 2.4 mph 2 mph 96% 0.00 in 0 W/m2
18:09 38.4 °F 37.3 °F 30.26 in SW 2.4 mph 3 mph 96% 0.00 in 0 W/m2
18:14 38.2 °F 37.2 °F 30.26 in WSW 1.8 mph 2 mph 96% 0.00 in 0 W/m2
18:19 38 °F 37 °F 30.26 in WSW 1.9 mph 2 mph 96% 0.00 in 0 W/m2
18:24 37.9 °F 36.8 °F 30.27 in West 2.2 mph 2 mph 96% 0.00 in 0 W/m2
18:29 37.7 °F 36.6 °F 30.27 in SSW 2.2 mph 3 mph 96% 0.00 in 0 W/m2
18:34 37.6 °F 36.5 °F 30.27 in SW 1.9 mph 3 mph 96% 0.00 in 0 W/m2
18:39 37.4 °F 36.7 °F 30.27 in West 1.5 mph 2 mph 97% 0.00 in 0 W/m2
18:44 37.3 °F 36.7 °F 30.27 in North 0.8 mph 2 mph 97.5% 0.00 in 0 W/m2
18:49 37.2 °F 36.2 °F 30.27 in NW 1.4 mph 1.3 mph 96% 0.00 in 0 W/m2
18:54 37 °F 36.5 °F 30.28 in West 2.2 mph 2 mph 97.8% 0.00 in 0 W/m2
18:59 36.9 °F 36.4 °F 30.28 in WSW 2.7 mph 3.1 mph 98% 0.00 in 0 W/m2
19:04 36.8 °F 36.3 °F 30.28 in WSW 3.8 mph 5 mph 98% 0.00 in 0 W/m2
19:09 36.7 °F 36.4 °F 30.28 in WSW 3.1 mph 5 mph 98.9% 0.00 in 0 W/m2
19:14 36.7 °F 36.4 °F 30.28 in WSW 2.3 mph 3 mph 99% 0.00 in 0 W/m2
19:19 36.7 °F 36.4 °F 30.28 in West 2.6 mph 3 mph 99% 0.00 in 0 W/m2
19:24 36.7 °F 36.4 °F 30.28 in West 2.4 mph 4 mph 99% 0.00 in 0 W/m2
19:29 36.7 °F 36.4 °F 30.28 in West 1.1 mph 4 mph 99% 0.00 in 0 W/m2
19:34 36.5 °F 36.2 °F 30.28 in West 1.9 mph 2 mph 99% 0.00 in 0 W/m2
19:39 36.5 °F 36.2 °F 30.28 in WNW 2.4 mph 3 mph 99% 0.00 in 0 W/m2
19:44 36.4 °F 36.1 °F 30.28 in NNW 1.2 mph 3 mph 99% 0.00 in 0 W/m2
19:49 36.3 °F 36.1 °F 30.28 in NNE 2.7 mph 2 mph 99% 0.00 in 0 W/m2
19:54 36.3 °F 36.1 °F 30.28 in ENE 1.1 mph 3 mph 99% 0.00 in 0 W/m2
19:59 36.3 °F 36.1 °F 30.28 in NNE 2.1 mph 2 mph 99% 0.00 in 0 W/m2
20:04 36.2 °F 36 °F 30.28 in NW 1.2 mph 3 mph 99% 0.00 in 0 W/m2
20:09 36 °F 35.8 °F 30.28 in NW 1.2 mph 1.6 mph 99% 0.00 in 0 W/m2
20:14 36 °F 35.7 °F 30.28 in NNW 0.6 mph 2 mph 99% 0.00 in 0 W/m2
20:19 35.8 °F 35.5 °F 30.28 in NNW 1.5 mph 1.3 mph 99% 0.00 in 0 W/m2
20:24 35.8 °F 35.5 °F 30.29 in NW 1.1 mph 2 mph 99% 0.00 in 0 W/m2
20:29 35.6 °F 35.3 °F 30.29 in NW 1.4 mph 2 mph 99% 0.00 in 0 W/m2
20:34 35.4 °F 35.2 °F 30.28 in NNW 1.3 mph 2 mph 99% 0.00 in 0 W/m2
20:39 35.2 °F 35 °F 30.28 in NW 1.9 mph 2 mph 99% 0.00 in 0 W/m2
20:44 35 °F 34.7 °F 30.28 in WNW 2.4 mph 2 mph 99% 0.00 in 0 W/m2
20:49 34.7 °F 34.4 °F 30.29 in SW 3 mph 3 mph 99% 0.00 in 0 W/m2
20:54 34.4 °F 34.2 °F 30.28 in SSW 3 mph 4 mph 99% 0.00 in 0 W/m2
20:59 34.3 °F 34 °F 30.29 in SSW 2.2 mph 4 mph 99% 0.00 in 0 W/m2
21:04 34.2 °F 33.9 °F 30.29 in WSW 1.8 mph 2 mph 99% 0.00 in 0 W/m2
21:09 34 °F 33.7 °F 30.29 in WNW 2.1 mph 2 mph 99% 0.00 in 0 W/m2
21:14 33.9 °F 33.6 °F 30.29 in WNW 2.3 mph 3 mph 99% 0.00 in 0 W/m2
21:19 33.8 °F 33.5 °F 30.29 in WNW 2.3 mph 3 mph 99% 0.00 in 0 W/m2
21:24 33.7 °F 33.5 °F 30.29 in WNW 1.2 mph 2 mph 99% 0.00 in 0 W/m2
21:29 33.6 °F 33.4 °F 30.29 in NW 1.7 mph 2 mph 99% 0.00 in 0 W/m2
21:34 33.6 °F 33.4 °F 30.29 in NW 1.1 mph 2 mph 99% 0.00 in 0 W/m2
21:39 33.4 °F 33.2 °F 30.29 in NW 0.9 mph 1 mph 99% 0.00 in 0 W/m2
21:44 33.3 °F 33 °F 30.29 in WNW 1.1 mph 2 mph 99% 0.00 in 0 W/m2
21:49 33.3 °F 33 °F 30.30 in WSW 1.4 mph 2 mph 99% 0.00 in 0 W/m2
21:54 33.1 °F 32.8 °F 30.30 in SSW 2.1 mph 2 mph 99% 0.00 in 0 W/m2
21:59 33.1 °F 32.8 °F 30.30 in SW 1.8 mph 2 mph 99% 0.00 in 0 W/m2
22:04 32.9 °F 32.7 °F 30.30 in West 1.7 mph 2.2 mph 99% 0.00 in 0 W/m2
22:09 32.8 °F 32.6 °F 30.30 in NW 3.1 mph 5 mph 99% 0.00 in 0 W/m2
22:14 32.6 °F 32.4 °F 30.29 in NNW 2.1 mph 3 mph 99% 0.00 in 0 W/m2
22:19 32.5 °F 32.3 °F 30.30 in NNW 1 mph 2 mph 99% 0.00 in 0 W/m2
22:24 32.4 °F 32.1 °F 30.30 in NW 0.5 mph 1 mph 99% 0.00 in 0 W/m2
22:29 32.3 °F 32 °F 30.30 in NW 1.5 mph 1.3 mph 99% 0.00 in 0 W/m2
22:34 32.2 °F 31.9 °F 30.30 in WSW 1.2 mph 2 mph 99% 0.00 in 0 W/m2
22:39 32.2 °F 31.9 °F 30.30 in Calm   2 mph 99% 0.00 in 0 W/m2
22:44 32.1 °F 31.8 °F 30.30 in West 0.8 mph 0.4 mph 99% 0.00 in 0 W/m2
22:49 31.8 °F 31.6 °F 30.30 in NNW 0.2 mph 2 mph 99% 0.00 in 0 W/m2
22:54 31.8 °F 31.6 °F 30.30 in NNW 0.4 mph 1 mph 99% 0.00 in 0 W/m2
22:59 31.6 °F 31.3 °F 30.30 in North 1.3 mph 1.3 mph 99% 0.00 in 0 W/m2
23:04 31.5 °F 31.3 °F 30.30 in North 0.7 mph 2 mph 99% 0.00 in 0 W/m2
23:09 31.5 °F 31.3 °F 30.30 in Calm   1 mph 99% 0.00 in 0 W/m2
23:14 31.5 °F 31.2 °F 30.30 in West 0.6 mph 1 mph 99% 0.00 in 0 W/m2
23:19 31.5 °F 31.2 °F 30.30 in West 1.7 mph 2 mph 99% 0.00 in 0 W/m2
23:24 31.3 °F 31 °F 30.30 in WNW 1.4 mph 2 mph 99% 0.00 in 0 W/m2
23:29 31.3 °F 31 °F 30.30 in NW 1.9 mph 2 mph 99% 0.00 in 0 W/m2
23:34 31.3 °F 31 °F 30.30 in NW 2.6 mph 3 mph 99% 0.00 in 0 W/m2
23:39 31.3 °F 31 °F 30.30 in NW 1.4 mph 3 mph 99% 0.00 in 0 W/m2
23:44 31.3 °F 31 °F 30.30 in NW 2.2 mph 2 mph 99% 0.00 in 0 W/m2
23:49 31.1 °F 30.9 °F 30.30 in NW 1.7 mph 3 mph 99% 0.00 in 0 W/m2
23:54 31 °F 30.8 °F 30.30 in NNW 0.5 mph 3 mph 99% 0.00 in 0 W/m2
23:59 30.9 °F 30.7 °F 30.30 in North 0.7 mph 1 mph 99% 0.00 in 0 W/m2
Knjazevac, Serbia
Compliments of Weather Underground - 4 mb